Time;durP1;ratioP1;P1;durP2;ratioP2;P2;SDS_P1;SDS_P2;PMS_P1;PMS_P2;Temp;Humidity;BMP_temperature;BMP_pressure;BME280_temperature;BME280_humidity;BME280_pressure;Samples;Min_cycle;Max_cycle;Signal;HPM_P1;HPM_P2
2021/03/10 00:01:12;;;;;;;26.63;16.87;;;;;;;;;;5016096;28;20429;-78
2021/03/10 00:03:38;;;;;;;26.27;16.80;;;;;;;;;;5017680;28;20433;-77
2021/03/10 00:06:05;;;;;;;29.83;17.80;;;;;;;;;;5016602;28;20505;-78
2021/03/10 00:08:31;;;;;;;29.77;16.53;;;;;;;;;;5018182;28;20825;-78
2021/03/10 00:10:57;;;;;;;31.23;18.67;;;;;;;;;;5016039;28;20465;-78
2021/03/10 00:13:24;;;;;;;28.13;17.03;;;;;;;;;;5016036;28;20438;-78
2021/03/10 00:15:50;;;;;;;23.73;16.20;;;;;;;;;;5015395;28;20487;-78
2021/03/10 00:18:16;;;;;;;32.40;16.40;;;;;;;;;;5016427;28;20461;-78
2021/03/10 00:20:42;;;;;;;27.53;16.97;;;;;;;;;;5014188;28;20432;-77
2021/03/10 00:23:08;;;;;;;31.07;15.60;;;;;;;;;;5016104;28;20512;-78
2021/03/10 00:25:34;;;;;;;31.13;16.50;;;;;;;;;;5014712;28;20433;-78
2021/03/10 00:28:00;;;;;;;30.37;16.53;;;;;;;;;;5016914;28;20408;-78
2021/03/10 00:30:26;;;;;;;30.43;16.60;;;;;;;;;;5016266;28;20450;-78
2021/03/10 00:32:52;;;;;;;26.77;16.37;;;;;;;;;;5016287;28;20429;-77
2021/03/10 00:35:18;;;;;;;32.17;17.60;;;;;;;;;;5016165;28;20456;-78
2021/03/10 00:37:44;;;;;;;28.80;17.43;;;;;;;;;;5016911;28;20417;-78
2021/03/10 00:40:10;;;;;;;33.83;16.83;;;;;;;;;;5017174;28;20527;-78
2021/03/10 00:42:36;;;;;;;33.67;17.13;;;;;;;;;;5019994;28;20425;-77
2021/03/10 00:45:03;;;;;;;30.00;17.40;;;;;;;;;;5017930;28;20826;-78
2021/03/10 00:47:29;;;;;;;28.60;16.33;;;;;;;;;;5022435;28;20540;-77
2021/03/10 00:49:55;;;;;;;32.13;20.63;;;;;;;;;;5013842;28;20432;-78
2021/03/10 00:52:21;;;;;;;26.23;16.87;;;;;;;;;;5018586;28;20414;-78
2021/03/10 00:54:47;;;;;;;29.80;17.07;;;;;;;;;;5016424;28;20426;-78
2021/03/10 00:57:13;;;;;;;26.37;17.00;;;;;;;;;;5016965;28;20427;-77
2021/03/10 00:59:39;;;;;;;31.83;18.60;;;;;;;;;;5017922;28;20465;-78
2021/03/10 01:02:05;;;;;;;34.23;16.57;;;;;;;;;;5016855;28;20894;-77
2021/03/10 01:04:31;;;;;;;30.13;17.53;;;;;;;;;;5017924;28;20990;-78
2021/03/10 01:06:57;;;;;;;28.80;18.70;;;;;;;;;;5016277;28;20518;-78
2021/03/10 01:09:24;;;;;;;29.80;18.57;;;;;;;;;;5017855;28;20404;-78
2021/03/10 01:11:50;;;;;;;30.20;17.77;;;;;;;;;;5017203;28;21025;-78
2021/03/10 01:14:16;;;;;;;27.87;17.57;;;;;;;;;;5017890;28;20952;-78
2021/03/10 01:16:42;;;;;;;27.47;16.53;;;;;;;;;;5016354;28;20436;-78
2021/03/10 01:19:08;;;;;;;30.80;18.63;;;;;;;;;;5018100;28;20561;-78
2021/03/10 01:21:34;;;;;;;34.47;17.67;;;;;;;;;;5016914;28;20802;-78
2021/03/10 01:24:00;;;;;;;28.43;18.40;;;;;;;;;;5016468;28;20459;-78
2021/03/10 01:26:26;;;;;;;33.33;17.97;;;;;;;;;;5016202;28;20427;-78
2021/03/10 01:28:52;;;;;;;32.30;17.63;;;;;;;;;;5017724;28;20926;-77
2021/03/10 01:31:18;;;;;;;30.07;17.87;;;;;;;;;;5015432;28;20758;-78
2021/03/10 01:33:44;;;;;;;31.70;18.20;;;;;;;;;;5018059;28;20995;-78
2021/03/10 01:36:11;;;;;;;27.93;17.37;;;;;;;;;;5017632;28;20992;-78
2021/03/10 01:38:37;;;;;;;34.43;18.67;;;;;;;;;;5018253;28;20815;-78
2021/03/10 01:41:04;;;;;;;34.27;19.00;;;;;;;;;;5017449;28;20975;-78
2021/03/10 01:43:30;;;;;;;29.03;17.47;;;;;;;;;;5018500;28;20442;-77
2021/03/10 01:45:56;;;;;;;35.37;20.87;;;;;;;;;;5017305;28;20521;-78
2021/03/10 01:48:22;;;;;;;32.10;18.53;;;;;;;;;;5014603;28;20911;-78
2021/03/10 01:50:48;;;;;;;33.63;19.43;;;;;;;;;;5002568;28;20809;-78
2021/03/10 01:53:15;;;;;;;29.50;18.53;;;;;;;;;;5017316;28;20432;-77
2021/03/10 01:55:41;;;;;;;32.07;20.07;;;;;;;;;;5015084;28;20434;-77
2021/03/10 01:58:07;;;;;;;32.80;20.20;;;;;;;;;;5015396;28;20432;-78
2021/03/10 02:00:33;;;;;;;30.83;20.53;;;;;;;;;;5016672;28;20437;-78
2021/03/10 02:03:00;;;;;;;30.87;18.50;;;;;;;;;;5018394;28;20427;-78
2021/03/10 02:05:27;;;;;;;34.33;18.90;;;;;;;;;;5017639;28;20414;-78
2021/03/10 02:08:11;;;;;;;33.60;17.70;;;;;;;;;;5018388;28;20424;-78
2021/03/10 02:10:56;;;;;;;29.43;17.60;;;;;;;;;;5016685;28;20479;-78
2021/03/10 02:13:31;;;;;;;30.80;19.70;;;;;;;;;;5040781;22;20487;-72
2021/03/10 02:16:21;;;;;;;31.97;18.63;;;;;;;;;;5018421;28;20782;-71
2021/03/10 02:18:48;;;;;;;32.23;18.47;;;;;;;;;;5029516;28;21000;-72
2021/03/10 02:21:26;;;;;;;29.60;18.90;;;;;;;;;;5033111;28;20891;-71
2021/03/10 02:23:58;;;;;;;31.00;20.33;;;;;;;;;;5034644;28;20423;-71
2021/03/10 02:26:33;;;;;;;33.60;20.07;;;;;;;;;;5013417;28;20520;-71
2021/03/10 02:29:02;;;;;;;34.13;19.10;;;;;;;;;;5014457;28;20904;-70
2021/03/10 02:31:28;;;;;;;37.63;20.37;;;;;;;;;;5021880;28;20458;-71
2021/03/10 02:33:55;;;;;;;39.10;21.03;;;;;;;;;;5020306;28;20498;-71
2021/03/10 02:36:21;;;;;;;33.80;20.30;;;;;;;;;;5012527;28;20424;-71
2021/03/10 02:38:48;;;;;;;33.50;20.53;;;;;;;;;;5013126;28;20456;-71
2021/03/10 02:41:15;;;;;;;36.30;21.00;;;;;;;;;;5014167;28;20401;-71
2021/03/10 02:43:42;;;;;;;36.03;21.07;;;;;;;;;;5034193;28;20792;-71
2021/03/10 02:46:09;;;;;;;37.20;19.07;;;;;;;;;;5032165;28;20891;-71
2021/03/10 02:48:36;;;;;;;33.40;21.57;;;;;;;;;;5028572;28;20496;-73
2021/03/10 02:51:02;;;;;;;38.80;22.00;;;;;;;;;;5013138;28;20443;-71
2021/03/10 02:53:29;;;;;;;37.60;21.70;;;;;;;;;;5031912;28;20444;-70
2021/03/10 02:55:55;;;;;;;35.60;21.73;;;;;;;;;;5033762;28;20407;-71
2021/03/10 02:58:21;;;;;;;34.60;20.93;;;;;;;;;;5030642;28;20492;-71
2021/03/10 03:00:47;;;;;;;34.53;20.77;;;;;;;;;;5033769;28;20410;-71
2021/03/10 03:03:13;;;;;;;36.73;22.17;;;;;;;;;;5013023;28;20449;-73
2021/03/10 03:05:39;;;;;;;42.80;23.37;;;;;;;;;;5013925;28;20409;-72
2021/03/10 03:08:06;;;;;;;42.63;21.17;;;;;;;;;;5025602;28;20433;-73
2021/03/10 03:10:35;;;;;;;36.20;23.37;;;;;;;;;;5033391;28;20412;-71
2021/03/10 03:13:02;;;;;;;36.43;20.50;;;;;;;;;;5030582;28;20557;-73
2021/03/10 03:15:29;;;;;;;42.03;23.80;;;;;;;;;;5032388;28;20881;-72
2021/03/10 03:17:56;;;;;;;38.07;24.10;;;;;;;;;;5031402;28;20434;-72
2021/03/10 03:20:25;;;;;;;39.23;23.97;;;;;;;;;;5033651;28;20413;-72
2021/03/10 03:22:52;;;;;;;42.10;24.40;;;;;;;;;;5031280;28;21005;-72
2021/03/10 03:25:18;;;;;;;39.20;22.50;;;;;;;;;;5033442;28;20426;-72
2021/03/10 03:27:50;;;;;;;38.10;23.40;;;;;;;;;;5031559;28;20501;-72
2021/03/10 03:30:16;;;;;;;37.47;22.00;;;;;;;;;;5033245;28;20419;-72
2021/03/10 03:32:43;;;;;;;40.97;23.10;;;;;;;;;;5030118;28;20438;-72
2021/03/10 03:35:09;;;;;;;36.50;21.80;;;;;;;;;;5033483;28;20445;-73
2021/03/10 03:37:37;;;;;;;43.70;24.03;;;;;;;;;;5013240;28;20462;-72
2021/03/10 03:40:05;;;;;;;38.47;24.53;;;;;;;;;;5033100;28;20991;-72
2021/03/10 03:42:31;;;;;;;37.93;23.47;;;;;;;;;;5020418;28;20928;-72
2021/03/10 03:44:57;;;;;;;39.83;23.23;;;;;;;;;;5013740;28;20425;-72
2021/03/10 03:47:23;;;;;;;35.90;23.20;;;;;;;;;;5020200;28;20485;-72
2021/03/10 03:49:49;;;;;;;40.90;24.13;;;;;;;;;;5013067;28;20449;-72
2021/03/10 03:52:15;;;;;;;40.30;25.17;;;;;;;;;;5005271;28;20436;-72
2021/03/10 03:54:42;;;;;;;37.47;22.83;;;;;;;;;;5033307;28;20489;-72
2021/03/10 03:57:08;;;;;;;41.07;23.73;;;;;;;;;;5031120;28;20435;-72
2021/03/10 03:59:35;;;;;;;45.33;25.57;;;;;;;;;;5033078;28;20477;-72
2021/03/10 04:02:01;;;;;;;44.20;26.03;;;;;;;;;;5027109;28;20436;-72
2021/03/10 04:04:27;;;;;;;34.83;22.37;;;;;;;;;;5013102;28;20434;-72
2021/03/10 04:06:53;;;;;;;47.10;24.37;;;;;;;;;;5014639;28;20437;-72
2021/03/10 04:09:19;;;;;;;46.23;25.47;;;;;;;;;;5033012;28;20863;-70
2021/03/10 04:11:46;;;;;;;39.10;23.70;;;;;;;;;;5011687;28;20473;-72
2021/03/10 04:14:12;;;;;;;39.43;24.40;;;;;;;;;;5032812;28;20539;-72
2021/03/10 04:16:38;;;;;;;39.23;23.67;;;;;;;;;;5017060;28;20942;-73
2021/03/10 04:19:05;;;;;;;39.37;25.03;;;;;;;;;;5032864;28;20860;-72
2021/03/10 04:21:31;;;;;;;48.20;25.73;;;;;;;;;;5033631;28;20413;-72
2021/03/10 04:23:57;;;;;;;44.30;26.93;;;;;;;;;;5034693;28;20448;-72
2021/03/10 04:26:24;;;;;;;45.63;25.53;;;;;;;;;;5035402;28;20412;-72
2021/03/10 04:28:50;;;;;;;44.03;25.83;;;;;;;;;;5034424;28;20773;-72
2021/03/10 04:31:16;;;;;;;45.83;25.97;;;;;;;;;;5036630;28;20404;-72
2021/03/10 04:33:42;;;;;;;40.63;24.80;;;;;;;;;;5034490;28;20449;-72
2021/03/10 04:36:08;;;;;;;38.13;24.40;;;;;;;;;;5020655;28;20420;-72
2021/03/10 04:38:34;;;;;;;40.93;25.73;;;;;;;;;;5025993;28;20471;-73
2021/03/10 04:41:00;;;;;;;38.30;22.23;;;;;;;;;;5035285;28;20961;-72
2021/03/10 04:43:27;;;;;;;46.97;27.90;;;;;;;;;;5020482;28;20437;-72
2021/03/10 04:45:53;;;;;;;48.40;26.37;;;;;;;;;;5016514;28;20393;-72
2021/03/10 04:48:19;;;;;;;48.93;26.73;;;;;;;;;;5024250;28;20481;-72
2021/03/10 04:50:45;;;;;;;45.20;25.83;;;;;;;;;;5016698;28;20404;-72
2021/03/10 04:53:11;;;;;;;42.00;24.83;;;;;;;;;;5026330;28;20444;-72
2021/03/10 04:55:37;;;;;;;39.77;24.60;;;;;;;;;;5036144;28;20912;-72
2021/03/10 04:58:03;;;;;;;44.57;26.00;;;;;;;;;;5020288;28;20960;-72
2021/03/10 05:00:29;;;;;;;42.30;25.67;;;;;;;;;;5016083;28;20414;-72
2021/03/10 05:02:55;;;;;;;46.83;27.47;;;;;;;;;;5014637;28;20426;-72
2021/03/10 05:05:22;;;;;;;44.43;24.50;;;;;;;;;;5012462;28;20428;-72
2021/03/10 05:07:48;;;;;;;47.13;26.80;;;;;;;;;;5016072;28;20411;-72
2021/03/10 05:10:14;;;;;;;46.17;27.50;;;;;;;;;;5024553;28;20490;-72
2021/03/10 05:12:40;;;;;;;50.20;28.57;;;;;;;;;;5035624;28;20422;-72
2021/03/10 05:15:06;;;;;;;43.27;26.43;;;;;;;;;;5032674;28;20522;-72
2021/03/10 05:17:33;;;;;;;49.50;28.30;;;;;;;;;;5035659;28;20403;-72
2021/03/10 05:19:59;;;;;;;48.40;27.13;;;;;;;;;;5033644;28;20989;-72
2021/03/10 05:22:25;;;;;;;47.33;27.67;;;;;;;;;;5035553;28;20488;-72
2021/03/10 05:24:51;;;;;;;44.37;27.70;;;;;;;;;;5033473;28;20470;-72
2021/03/10 05:27:18;;;;;;;47.97;25.70;;;;;;;;;;5035705;28;20857;-72
2021/03/10 05:29:44;;;;;;;44.07;28.93;;;;;;;;;;5033323;28;20430;-72
2021/03/10 05:32:10;;;;;;;44.60;26.10;;;;;;;;;;5035037;28;20413;-72
2021/03/10 05:34:36;;;;;;;48.07;28.60;;;;;;;;;;5031383;28;20446;-72
2021/03/10 05:37:03;;;;;;;51.70;30.10;;;;;;;;;;5004676;28;20418;-72
2021/03/10 05:39:29;;;;;;;50.63;26.40;;;;;;;;;;4998935;28;20479;-72
2021/03/10 05:41:56;;;;;;;50.03;27.70;;;;;;;;;;5015508;28;20409;-72
2021/03/10 05:44:22;;;;;;;46.37;28.37;;;;;;;;;;5016135;28;20454;-71
2021/03/10 05:46:48;;;;;;;44.73;26.27;;;;;;;;;;5017671;28;20461;-72
2021/03/10 05:49:14;;;;;;;46.03;27.10;;;;;;;;;;5012787;28;20445;-72
2021/03/10 05:51:41;;;;;;;44.47;26.57;;;;;;;;;;5014377;28;20426;-72
2021/03/10 05:54:07;;;;;;;44.40;26.10;;;;;;;;;;5014487;28;20438;-72
2021/03/10 05:56:33;;;;;;;47.17;25.53;;;;;;;;;;5034623;28;20418;-71
2021/03/10 05:59:04;;;;;;;38.53;23.83;;;;;;;;;;5034815;28;20598;-71
2021/03/10 06:01:30;;;;;;;41.17;24.27;;;;;;;;;;5015865;28;20430;-71
2021/03/10 06:04:01;;;;;;;54.27;26.27;;;;;;;;;;5015136;28;20422;-71
2021/03/10 06:06:33;;;;;;;44.83;24.43;;;;;;;;;;5012322;28;20952;-72
2021/03/10 06:09:10;;;;;;;49.80;25.47;;;;;;;;;;5013967;28;20488;-72
2021/03/10 06:11:36;;;;;;;47.60;27.77;;;;;;;;;;5013948;28;20438;-71
2021/03/10 06:14:02;;;;;;;43.83;24.73;;;;;;;;;;5014644;28;20984;-71
2021/03/10 06:16:28;;;;;;;39.37;24.73;;;;;;;;;;5027111;28;20960;-71
2021/03/10 06:19:04;;;;;;;43.63;25.13;;;;;;;;;;5034452;28;20445;-71
2021/03/10 06:21:30;;;;;;;46.40;26.40;;;;;;;;;;5032686;28;20901;-72
2021/03/10 06:23:57;;;;;;;54.97;26.87;;;;;;;;;;5034358;28;20427;-72
2021/03/10 06:26:24;;;;;;;49.60;26.43;;;;;;;;;;5032383;28;20929;-72
2021/03/10 06:28:51;;;;;;;46.17;26.17;;;;;;;;;;5034173;28;20411;-72
2021/03/10 06:31:29;;;;;;;44.63;26.50;;;;;;;;;;5032503;28;20434;-72
2021/03/10 06:33:58;;;;;;;49.37;27.50;;;;;;;;;;5033981;28;20437;-72
2021/03/10 06:36:25;;;;;;;37.27;22.97;;;;;;;;;;5010195;28;20437;-73
2021/03/10 06:38:51;;;;;;;44.23;25.57;;;;;;;;;;4994791;28;20457;-72
2021/03/10 06:41:27;;;;;;;45.40;26.57;;;;;;;;;;5015760;28;20435;-72
2021/03/10 06:43:53;;;;;;;43.90;27.87;;;;;;;;;;5032044;28;20469;-72
2021/03/10 06:46:19;;;;;;;51.00;29.37;;;;;;;;;;5032129;28;20437;-72
2021/03/10 06:49:12;;;;;;;50.83;24.33;;;;;;;;;;5034073;28;20533;-72
2021/03/10 06:51:50;;;;;;;49.07;27.07;;;;;;;;;;5029755;28;20435;-72
2021/03/10 06:54:16;;;;;;;53.93;25.77;;;;;;;;;;5014100;28;21005;-72
2021/03/10 06:56:42;;;;;;;44.93;24.60;;;;;;;;;;5025999;28;20948;-72
2021/03/10 06:59:08;;;;;;;45.47;27.13;;;;;;;;;;5016857;28;20455;-72
2021/03/10 07:01:40;;;;;;;37.70;23.97;;;;;;;;;;5023757;28;20479;-72
2021/03/10 07:04:07;;;;;;;44.80;25.90;;;;;;;;;;5033606;28;20432;-72
2021/03/10 07:06:33;;;;;;;48.27;28.40;;;;;;;;;;5019913;28;20429;-72
2021/03/10 07:09:01;;;;;;;43.27;26.17;;;;;;;;;;5013167;28;20422;-72
2021/03/10 07:11:27;;;;;;;42.10;24.10;;;;;;;;;;5023711;28;20436;-72
2021/03/10 07:13:53;;;;;;;50.77;27.00;;;;;;;;;;5033443;28;20453;-72
2021/03/10 07:16:20;;;;;;;44.90;26.03;;;;;;;;;;5031502;28;20966;-72
2021/03/10 07:18:47;;;;;;;41.63;25.17;;;;;;;;;;5032220;28;20457;-72
2021/03/10 07:21:14;;;;;;;42.90;24.90;;;;;;;;;;5031597;28;20437;-71
2021/03/10 07:23:44;;;;;;;47.53;26.40;;;;;;;;;;5033340;28;20485;-72
2021/03/10 07:26:12;;;;;;;40.93;23.73;;;;;;;;;;5023895;28;20480;-73
2021/03/10 07:28:38;;;;;;;38.30;24.67;;;;;;;;;;5013837;28;20441;-72
2021/03/10 07:31:04;;;;;;;42.33;25.53;;;;;;;;;;5019040;28;20515;-71
2021/03/10 07:33:30;;;;;;;39.13;24.63;;;;;;;;;;5033254;28;20470;-72
2021/03/10 07:36:01;;;;;;;38.27;23.53;;;;;;;;;;5021459;28;20442;-72
2021/03/10 07:38:36;;;;;;;39.27;24.10;;;;;;;;;;4993893;28;20493;-73
2021/03/10 07:41:06;;;;;;;37.90;23.47;;;;;;;;;;5005238;28;20427;-73
2021/03/10 07:43:35;;;;;;;41.33;25.53;;;;;;;;;;5031503;28;20478;-72
2021/03/10 07:46:01;;;;;;;50.70;24.97;;;;;;;;;;5001314;28;20437;-72
2021/03/10 07:48:35;;;;;;;38.13;22.83;;;;;;;;;;5008802;28;20496;-72
2021/03/10 07:51:01;;;;;;;42.40;22.93;;;;;;;;;;5017281;28;20428;-70
2021/03/10 07:53:37;;;;;;;40.07;24.47;;;;;;;;;;5029364;28;20465;-72
2021/03/10 07:56:03;;;;;;;36.53;23.80;;;;;;;;;;5017308;28;20435;-72
2021/03/10 07:58:30;;;;;;;36.13;21.13;;;;;;;;;;5007532;28;20482;-72
2021/03/10 08:00:57;;;;;;;45.90;25.30;;;;;;;;;;5010729;28;20434;-72
2021/03/10 08:03:30;;;;;;;45.60;23.27;;;;;;;;;;5013111;28;20472;-71
2021/03/10 08:06:00;;;;;;;38.83;23.30;;;;;;;;;;5012098;28;20450;-72
2021/03/10 08:08:33;;;;;;;40.27;23.33;;;;;;;;;;5012066;28;20426;-71
2021/03/10 08:11:11;;;;;;;37.47;21.30;;;;;;;;;;5006264;28;20931;-70
2021/03/10 08:13:37;;;;;;;46.03;24.93;;;;;;;;;;5022241;23;20767;-77
2021/03/10 08:16:04;;;;;;;35.93;21.00;;;;;;;;;;4991179;28;20423;-76
2021/03/10 08:18:32;;;;;;;37.67;21.97;;;;;;;;;;4995933;28;20586;-76
2021/03/10 08:21:00;;;;;;;39.13;22.50;;;;;;;;;;4993833;28;20979;-77
2021/03/10 08:23:29;;;;;;;38.03;23.00;;;;;;;;;;4998203;28;20469;-76
2021/03/10 08:25:55;;;;;;;40.17;23.60;;;;;;;;;;4999625;28;20419;-78
2021/03/10 08:28:21;;;;;;;40.60;22.90;;;;;;;;;;4996425;28;20423;-76
2021/03/10 08:30:47;;;;;;;41.53;23.53;;;;;;;;;;4991364;28;20545;-76
2021/03/10 08:33:14;;;;;;;39.67;23.37;;;;;;;;;;4992080;28;20409;-75
2021/03/10 08:35:51;;;;;;;37.20;22.00;;;;;;;;;;4990905;28;20479;-77
2021/03/10 08:38:18;;;;;;;41.13;22.37;;;;;;;;;;5003908;28;20442;-77
2021/03/10 08:40:44;;;;;;;36.63;21.40;;;;;;;;;;4995022;28;20480;-78
2021/03/10 08:43:16;;;;;;;36.00;21.30;;;;;;;;;;5000391;28;20441;-78
2021/03/10 08:45:42;;;;;;;40.00;23.20;;;;;;;;;;5001280;28;20411;-78
2021/03/10 08:48:09;;;;;;;36.87;21.10;;;;;;;;;;5006254;28;20426;-78
2021/03/10 08:50:36;;;;;;;38.97;22.90;;;;;;;;;;5005112;28;20435;-78
2021/03/10 08:53:03;;;;;;;41.37;23.63;;;;;;;;;;5001074;28;20427;-78
2021/03/10 08:55:30;;;;;;;39.97;23.70;;;;;;;;;;5000343;28;20482;-78
2021/03/10 08:57:58;;;;;;;44.27;22.10;;;;;;;;;;4992007;28;20431;-77
2021/03/10 09:00:26;;;;;;;38.87;24.07;;;;;;;;;;4995111;28;20473;-77
2021/03/10 09:02:53;;;;;;;39.03;23.03;;;;;;;;;;4989825;28;20444;-77
2021/03/10 09:05:26;;;;;;;43.97;23.20;;;;;;;;;;4987038;28;20436;-77
2021/03/10 09:07:53;;;;;;;45.17;24.57;;;;;;;;;;4993573;28;20548;-77
2021/03/10 09:10:21;;;;;;;39.90;21.07;;;;;;;;;;4995114;28;20916;-77
2021/03/10 09:12:48;;;;;;;40.43;22.70;;;;;;;;;;4991843;28;20465;-77
2021/03/10 09:15:18;;;;;;;45.97;23.60;;;;;;;;;;4998928;28;20463;-77
2021/03/10 09:17:45;;;;;;;47.43;23.30;;;;;;;;;;4999197;28;20461;-77
2021/03/10 09:20:28;;;;;;;35.33;21.47;;;;;;;;;;4997175;28;20463;-77
2021/03/10 09:22:54;;;;;;;40.13;21.80;;;;;;;;;;4984211;28;20794;-78
2021/03/10 09:25:24;;;;;;;40.37;21.37;;;;;;;;;;4979945;28;20498;-77
2021/03/10 09:28:01;;;;;;;49.77;21.97;;;;;;;;;;4997982;28;20423;-77
2021/03/10 09:30:31;;;;;;;40.97;21.10;;;;;;;;;;4998302;28;20406;-77
2021/03/10 09:32:57;;;;;;;41.13;23.20;;;;;;;;;;4984075;28;20447;-77
2021/03/10 09:35:28;;;;;;;36.57;20.57;;;;;;;;;;4985261;28;20443;-78
2021/03/10 09:37:55;;;;;;;39.70;23.77;;;;;;;;;;4997636;28;20923;-78
2021/03/10 09:40:23;;;;;;;38.17;22.40;;;;;;;;;;4996293;28;20463;-77
2021/03/10 09:42:58;;;;;;;29.97;20.40;;;;;;;;;;4994676;28;20452;-77
2021/03/10 09:45:26;;;;;;;39.63;21.97;;;;;;;;;;4986670;28;20446;-77
2021/03/10 09:47:52;;;;;;;33.40;19.60;;;;;;;;;;4993295;28;21216;-77
2021/03/10 09:50:28;;;;;;;32.77;20.83;;;;;;;;;;4996466;28;20553;-77
2021/03/10 09:52:55;;;;;;;38.07;22.53;;;;;;;;;;4993155;28;20438;-77
2021/03/10 09:55:22;;;;;;;35.13;20.27;;;;;;;;;;4991062;28;20801;-77
2021/03/10 09:57:48;;;;;;;31.93;18.80;;;;;;;;;;4995812;28;20455;-78
2021/03/10 10:00:18;;;;;;;35.95;21.73;;;;;;;;;;5000925;28;20471;-78
2021/03/10 10:02:46;;;;;;;34.70;21.20;;;;;;;;;;4999983;28;20186;-78
2021/03/10 10:05:20;;;;;;;35.50;21.93;;;;;;;;;;4994135;28;20434;-78
2021/03/10 10:07:46;;;;;;;33.67;21.30;;;;;;;;;;5001987;28;20423;-78
2021/03/10 10:10:12;;;;;;;40.90;19.87;;;;;;;;;;5003435;28;20418;-78
2021/03/10 10:12:48;;;;;;;29.80;17.97;;;;;;;;;;4994659;28;20439;-78
2021/03/10 10:15:15;;;;;;;31.97;18.10;;;;;;;;;;5000445;28;20479;-78
2021/03/10 10:17:42;;;;;;;35.13;19.10;;;;;;;;;;4998363;28;20441;-78
2021/03/10 10:20:09;;;;;;;34.67;19.37;;;;;;;;;;4999246;28;20530;-78
2021/03/10 10:22:35;;;;;;;30.60;18.80;;;;;;;;;;5000531;28;20437;-78
2021/03/10 10:25:02;;;;;;;36.50;19.47;;;;;;;;;;4995630;28;20435;-77
2021/03/10 10:27:28;;;;;;;27.10;18.30;;;;;;;;;;4993219;28;20437;-77
2021/03/10 10:29:54;;;;;;;28.10;17.93;;;;;;;;;;4999851;28;20446;-78
2021/03/10 10:32:21;;;;;;;33.30;19.37;;;;;;;;;;4994677;28;20509;-78
2021/03/10 10:34:49;;;;;;;28.93;17.97;;;;;;;;;;4994447;28;20444;-78
2021/03/10 10:37:15;;;;;;;29.70;17.27;;;;;;;;;;4994649;28;20481;-77
2021/03/10 10:39:41;;;;;;;28.97;17.27;;;;;;;;;;4996340;28;20521;-77
2021/03/10 10:42:07;;;;;;;26.70;16.33;;;;;;;;;;4992003;28;20932;-77
2021/03/10 10:44:33;;;;;;;31.90;18.10;;;;;;;;;;4985432;28;20452;-78
2021/03/10 10:46:59;;;;;;;26.20;16.20;;;;;;;;;;4990618;28;20439;-77
2021/03/10 10:49:25;;;;;;;29.13;17.53;;;;;;;;;;4995105;28;20415;-77
2021/03/10 10:51:51;;;;;;;23.50;15.80;;;;;;;;;;4992016;28;20567;-77
2021/03/10 10:54:18;;;;;;;28.07;15.00;;;;;;;;;;4991934;28;20451;-77
2021/03/10 10:56:44;;;;;;;26.37;16.50;;;;;;;;;;4988835;28;20580;-77
2021/03/10 10:59:10;;;;;;;24.47;16.20;;;;;;;;;;4988524;28;20640;-77
2021/03/10 11:01:36;;;;;;;29.42;16.20;;;;;;;;;;4986042;28;20439;-77
2021/03/10 11:04:02;;;;;;;26.20;16.20;;;;;;;;;;5004485;28;20203;-77
2021/03/10 11:06:28;;;;;;;30.60;18.10;;;;;;;;;;4989443;28;20440;-77
2021/03/10 11:08:54;;;;;;;25.43;17.03;;;;;;;;;;4993498;28;20177;-76
2021/03/10 11:11:20;;;;;;;30.43;16.73;;;;;;;;;;4987754;28;20415;-76
2021/03/10 11:13:46;;;;;;;26.27;15.30;;;;;;;;;;4991259;28;20825;-77
2021/03/10 11:16:12;;;;;;;30.07;16.77;;;;;;;;;;4986629;28;20410;-76
2021/03/10 11:18:38;;;;;;;25.57;15.67;;;;;;;;;;4989988;28;20470;-76
2021/03/10 11:21:04;;;;;;;24.17;15.00;;;;;;;;;;4987723;28;20416;-77
2021/03/10 11:23:30;;;;;;;23.83;14.57;;;;;;;;;;4989588;28;20503;-76
2021/03/10 11:25:58;;;;;;;26.25;16.45;;;;;;;;;;4983357;28;20432;-76
2021/03/10 11:28:24;;;;;;;25.33;15.90;;;;;;;;;;4988848;28;20179;-77
2021/03/10 11:30:50;;;;;;;21.37;14.90;;;;;;;;;;4985197;28;20451;-77
2021/03/10 11:33:17;;;;;;;23.60;15.33;;;;;;;;;;4987873;28;20435;-78
2021/03/10 11:35:43;;;;;;;24.67;14.50;;;;;;;;;;4989963;28;20509;-77
2021/03/10 11:38:09;;;;;;;22.00;13.90;;;;;;;;;;4989156;28;20853;-76
2021/03/10 11:40:37;;;;;;;21.10;15.07;;;;;;;;;;4986978;28;20448;-77
2021/03/10 11:43:03;;;;;;;21.30;14.13;;;;;;;;;;4986379;28;20427;-76
2021/03/10 11:45:29;;;;;;;21.90;13.20;;;;;;;;;;4991776;28;21010;-77
2021/03/10 11:47:55;;;;;;;27.30;14.37;;;;;;;;;;4987630;28;20521;-76
2021/03/10 11:50:22;;;;;;;21.13;12.57;;;;;;;;;;4991619;28;20434;-77
2021/03/10 11:52:48;;;;;;;23.33;14.03;;;;;;;;;;4987336;28;20457;-78
2021/03/10 11:55:14;;;;;;;23.20;13.63;;;;;;;;;;4984683;28;20534;-77
2021/03/10 11:57:40;;;;;;;22.20;13.03;;;;;;;;;;4988265;28;20442;-77
2021/03/10 12:00:08;;;;;;;18.57;13.67;;;;;;;;;;4993254;28;20463;-76
2021/03/10 12:02:34;;;;;;;22.43;13.60;;;;;;;;;;4988262;28;20433;-77
2021/03/10 12:05:00;;;;;;;20.60;13.60;;;;;;;;;;4988923;28;20655;-75
2021/03/10 12:07:26;;;;;;;22.07;13.83;;;;;;;;;;4992571;28;20440;-76
2021/03/10 12:09:52;;;;;;;23.07;13.83;;;;;;;;;;4982193;28;20429;-76
2021/03/10 12:12:19;;;;;;;21.20;12.73;;;;;;;;;;4991239;28;20774;-76
2021/03/10 12:14:45;;;;;;;19.80;12.90;;;;;;;;;;4991130;28;20457;-75
2021/03/10 12:17:12;;;;;;;20.67;12.30;;;;;;;;;;4991519;28;20459;-76
2021/03/10 12:19:39;;;;;;;21.20;13.17;;;;;;;;;;4990961;28;20463;-77
2021/03/10 12:22:05;;;;;;;18.73;12.13;;;;;;;;;;4985355;28;20435;-78
2021/03/10 12:24:31;;;;;;;28.40;13.63;;;;;;;;;;4982313;28;20455;-78
2021/03/10 12:26:57;;;;;;;20.00;11.97;;;;;;;;;;4989097;28;20438;-77
2021/03/10 12:29:23;;;;;;;21.63;13.23;;;;;;;;;;4989153;28;20510;-77
2021/03/10 12:31:49;;;;;;;21.07;12.20;;;;;;;;;;4985549;28;20495;-77
2021/03/10 12:34:15;;;;;;;23.63;13.33;;;;;;;;;;4989331;28;20479;-77
2021/03/10 12:36:42;;;;;;;19.50;12.90;;;;;;;;;;4980201;28;20432;-78
2021/03/10 12:39:08;;;;;;;22.90;13.70;;;;;;;;;;4984836;28;20507;-77
2021/03/10 12:41:34;;;;;;;22.17;13.33;;;;;;;;;;4983990;28;20438;-78
2021/03/10 12:44:01;;;;;;;24.23;13.37;;;;;;;;;;4993616;28;20436;-78
2021/03/10 12:46:27;;;;;;;23.33;14.47;;;;;;;;;;4992809;28;21010;-77
2021/03/10 12:48:53;;;;;;;18.13;11.77;;;;;;;;;;4993501;28;20434;-77
2021/03/10 12:51:19;;;;;;;21.20;12.63;;;;;;;;;;4990938;28;20431;-77
2021/03/10 12:53:45;;;;;;;20.90;12.70;;;;;;;;;;4990115;28;20486;-77
2021/03/10 12:56:11;;;;;;;23.23;13.53;;;;;;;;;;4992808;28;20431;-77
2021/03/10 12:58:37;;;;;;;19.90;13.23;;;;;;;;;;4990378;28;20460;-78
2021/03/10 13:01:04;;;;;;;18.63;13.00;;;;;;;;;;4993540;28;20422;-78
2021/03/10 13:03:30;;;;;;;18.90;11.40;;;;;;;;;;4992225;28;20459;-78
2021/03/10 13:05:56;;;;;;;16.27;10.47;;;;;;;;;;4992346;28;20877;-78
2021/03/10 13:08:22;;;;;;;21.63;12.77;;;;;;;;;;4989501;28;20847;-79
2021/03/10 13:10:48;;;;;;;17.43;11.40;;;;;;;;;;4994040;28;20446;-78
2021/03/10 13:13:14;;;;;;;24.37;13.30;;;;;;;;;;4986259;28;20432;-79
2021/03/10 13:15:40;;;;;;;20.60;11.77;;;;;;;;;;4991644;28;20522;-76
2021/03/10 13:18:06;;;;;;;20.97;12.30;;;;;;;;;;4985647;28;20440;-78
2021/03/10 13:20:32;;;;;;;23.20;13.87;;;;;;;;;;4996061;28;20467;-78
2021/03/10 13:22:58;;;;;;;21.50;12.63;;;;;;;;;;4984920;28;20422;-79
2021/03/10 13:25:24;;;;;;;23.80;13.50;;;;;;;;;;4991273;28;20438;-79
2021/03/10 13:27:50;;;;;;;24.10;13.13;;;;;;;;;;4996325;28;21020;-78
2021/03/10 13:30:17;;;;;;;22.73;12.90;;;;;;;;;;4987643;28;20411;-79
2021/03/10 13:32:43;;;;;;;18.40;12.20;;;;;;;;;;4989352;28;20431;-79
2021/03/10 13:35:10;;;;;;;19.70;11.97;;;;;;;;;;4992569;28;20451;-77
2021/03/10 13:37:36;;;;;;;22.17;12.93;;;;;;;;;;4988432;28;20427;-79
2021/03/10 13:40:03;;;;;;;18.87;12.03;;;;;;;;;;4994144;28;20578;-77
2021/03/10 13:42:29;;;;;;;19.10;11.87;;;;;;;;;;4985921;28;20432;-82
2021/03/10 13:44:55;;;;;;;21.23;12.57;;;;;;;;;;4995280;28;20457;-78
2021/03/10 13:47:21;;;;;;;21.30;11.50;;;;;;;;;;4995539;28;20449;-78
2021/03/10 13:49:47;;;;;;;20.87;11.70;;;;;;;;;;4996697;28;20480;-78
2021/03/10 13:52:13;;;;;;;19.70;11.93;;;;;;;;;;4985078;28;20434;-78
2021/03/10 13:54:39;;;;;;;20.20;12.50;;;;;;;;;;4986938;28;20459;-79
2021/03/10 13:57:05;;;;;;;18.27;11.30;;;;;;;;;;4995777;28;20431;-79
2021/03/10 13:59:31;;;;;;;20.27;11.97;;;;;;;;;;4991995;28;20556;-79
2021/03/10 14:01:57;;;;;;;21.07;13.03;;;;;;;;;;4990785;28;20835;-80
2021/03/10 14:04:25;;;;;;;20.20;11.90;;;;;;;;;;4990391;28;20451;-79
2021/03/10 14:06:51;;;;;;;18.27;12.17;;;;;;;;;;4997706;28;20424;-79
2021/03/10 14:09:17;;;;;;;22.23;12.17;;;;;;;;;;4995853;28;20435;-81
2021/03/10 14:11:44;;;;;;;16.13;10.63;;;;;;;;;;4991464;28;20432;-78
2021/03/10 14:14:10;;;;;;;18.47;12.53;;;;;;;;;;4989841;28;20496;-83
2021/03/10 14:16:36;;;;;;;19.83;11.97;;;;;;;;;;4995609;28;20431;-79